sensor_id;sensor_type;location;lat;lon;timestamp;temperature;humidity
4811;DHT22;2419;51.276;6.472;2022-07-23T00:01:02;17.30;99.90
4811;DHT22;2419;51.276;6.472;2022-07-23T00:03:30;17.30;99.90
4811;DHT22;2419;51.276;6.472;2022-07-23T00:05:59;17.30;99.90
4811;DHT22;2419;51.276;6.472;2022-07-23T00:08:28;17.30;99.90
4811;DHT22;2419;51.276;6.472;2022-07-23T00:10:56;17.30;99.90
4811;DHT22;2419;51.276;6.472;2022-07-23T00:13:24;17.30;99.90
4811;DHT22;2419;51.276;6.472;2022-07-23T00:15:52;17.30;99.90
4811;DHT22;2419;51.276;6.472;2022-07-23T00:18:22;17.30;99.90
4811;DHT22;2419;51.276;6.472;2022-07-23T00:20:52;17.30;99.90
4811;DHT22;2419;51.276;6.472;2022-07-23T00:23:20;17.10;99.90
4811;DHT22;2419;51.276;6.472;2022-07-23T00:25:48;17.00;99.90
4811;DHT22;2419;51.276;6.472;2022-07-23T00:28:16;17.10;99.90
4811;DHT22;2419;51.276;6.472;2022-07-23T00:30:45;17.10;99.90
4811;DHT22;2419;51.276;6.472;2022-07-23T00:33:13;17.10;99.90
4811;DHT22;2419;51.276;6.472;2022-07-23T00:35:43;17.10;99.90
4811;DHT22;2419;51.276;6.472;2022-07-23T00:38:11;17.10;99.90
4811;DHT22;2419;51.276;6.472;2022-07-23T00:40:40;17.00;99.90
4811;DHT22;2419;51.276;6.472;2022-07-23T00:43:08;17.00;99.90
4811;DHT22;2419;51.276;6.472;2022-07-23T00:45:36;17.00;99.90
4811;DHT22;2419;51.276;6.472;2022-07-23T00:48:05;17.00;99.90
4811;DHT22;2419;51.276;6.472;2022-07-23T00:50:34;17.00;99.90
4811;DHT22;2419;51.276;6.472;2022-07-23T00:53:04;16.90;99.90
4811;DHT22;2419;51.276;6.472;2022-07-23T00:55:32;16.80;99.90
4811;DHT22;2419;51.276;6.472;2022-07-23T00:58:01;16.90;99.90
4811;DHT22;2419;51.276;6.472;2022-07-23T01:00:30;16.80;99.90
4811;DHT22;2419;51.276;6.472;2022-07-23T01:02:58;16.80;99.90
4811;DHT22;2419;51.276;6.472;2022-07-23T01:05:26;16.70;99.90
4811;DHT22;2419;51.276;6.472;2022-07-23T01:07:54;16.60;99.90
4811;DHT22;2419;51.276;6.472;2022-07-23T01:10:25;16.60;99.90
4811;DHT22;2419;51.276;6.472;2022-07-23T01:13:00;16.60;99.90
4811;DHT22;2419;51.276;6.472;2022-07-23T01:15:29;16.70;99.90
4811;DHT22;2419;51.276;6.472;2022-07-23T01:17:57;16.70;99.90
4811;DHT22;2419;51.276;6.472;2022-07-23T01:20:26;16.70;99.90
4811;DHT22;2419;51.276;6.472;2022-07-23T01:22:57;16.70;99.90
4811;DHT22;2419;51.276;6.472;2022-07-23T01:25:26;16.70;99.90
4811;DHT22;2419;51.276;6.472;2022-07-23T01:28:00;16.70;99.90
4811;DHT22;2419;51.276;6.472;2022-07-23T01:30:28;16.70;99.90
4811;DHT22;2419;51.276;6.472;2022-07-23T01:32:58;16.60;99.90
4811;DHT22;2419;51.276;6.472;2022-07-23T01:35:26;16.60;99.90
4811;DHT22;2419;51.276;6.472;2022-07-23T01:37:59;16.60;99.90
4811;DHT22;2419;51.276;6.472;2022-07-23T01:40:28;16.50;99.90
4811;DHT22;2419;51.276;6.472;2022-07-23T01:42:57;16.60;99.90
4811;DHT22;2419;51.276;6.472;2022-07-23T01:45:27;16.50;99.90
4811;DHT22;2419;51.276;6.472;2022-07-23T01:47:55;16.50;99.90
4811;DHT22;2419;51.276;6.472;2022-07-23T01:50:23;16.50;99.90
4811;DHT22;2419;51.276;6.472;2022-07-23T01:53:11;16.40;99.90
4811;DHT22;2419;51.276;6.472;2022-07-23T01:55:39;16.40;99.90
4811;DHT22;2419;51.276;6.472;2022-07-23T01:58:09;16.30;99.90
4811;DHT22;2419;51.276;6.472;2022-07-23T02:00:37;16.30;99.90
4811;DHT22;2419;51.276;6.472;2022-07-23T02:03:05;16.30;99.90
4811;DHT22;2419;51.276;6.472;2022-07-23T02:05:36;16.30;99.90
4811;DHT22;2419;51.276;6.472;2022-07-23T02:08:04;16.40;99.90
4811;DHT22;2419;51.276;6.472;2022-07-23T02:10:37;16.30;99.90
4811;DHT22;2419;51.276;6.472;2022-07-23T02:13:05;16.30;99.90
4811;DHT22;2419;51.276;6.472;2022-07-23T02:15:34;16.30;99.90
4811;DHT22;2419;51.276;6.472;2022-07-23T02:18:03;16.30;99.90
4811;DHT22;2419;51.276;6.472;2022-07-23T02:20:31;16.30;99.90
4811;DHT22;2419;51.276;6.472;2022-07-23T02:23:00;16.30;99.90
4811;DHT22;2419;51.276;6.472;2022-07-23T02:25:28;16.30;99.90
4811;DHT22;2419;51.276;6.472;2022-07-23T02:28:02;16.30;99.90
4811;DHT22;2419;51.276;6.472;2022-07-23T02:30:30;16.40;99.90
4811;DHT22;2419;51.276;6.472;2022-07-23T02:32:59;16.40;99.90
4811;DHT22;2419;51.276;6.472;2022-07-23T02:35:27;16.30;99.90
4811;DHT22;2419;51.276;6.472;2022-07-23T02:37:58;16.30;99.90
4811;DHT22;2419;51.276;6.472;2022-07-23T02:40:27;16.20;99.90
4811;DHT22;2419;51.276;6.472;2022-07-23T02:42:55;16.20;99.90
4811;DHT22;2419;51.276;6.472;2022-07-23T02:45:25;16.10;99.90
4811;DHT22;2419;51.276;6.472;2022-07-23T02:47:54;16.00;99.90
4811;DHT22;2419;51.276;6.472;2022-07-23T02:50:22;16.00;99.90
4811;DHT22;2419;51.276;6.472;2022-07-23T02:52:53;16.00;99.90
4811;DHT22;2419;51.276;6.472;2022-07-23T02:55:23;15.90;99.90
4811;DHT22;2419;51.276;6.472;2022-07-23T02:57:52;15.90;99.90
4811;DHT22;2419;51.276;6.472;2022-07-23T03:00:20;15.90;99.90
4811;DHT22;2419;51.276;6.472;2022-07-23T03:02:50;15.90;99.90
4811;DHT22;2419;51.276;6.472;2022-07-23T03:05:18;15.80;99.90
4811;DHT22;2419;51.276;6.472;2022-07-23T03:07:46;15.70;99.90
4811;DHT22;2419;51.276;6.472;2022-07-23T03:10:14;15.70;99.90
4811;DHT22;2419;51.276;6.472;2022-07-23T03:12:43;15.70;99.90
4811;DHT22;2419;51.276;6.472;2022-07-23T03:15:12;15.70;99.90
4811;DHT22;2419;51.276;6.472;2022-07-23T03:17:40;15.60;99.90
4811;DHT22;2419;51.276;6.472;2022-07-23T03:20:10;15.60;99.90
4811;DHT22;2419;51.276;6.472;2022-07-23T03:22:38;15.50;99.90
4811;DHT22;2419;51.276;6.472;2022-07-23T03:25:08;15.50;99.90
4811;DHT22;2419;51.276;6.472;2022-07-23T03:27:36;15.50;99.90
4811;DHT22;2419;51.276;6.472;2022-07-23T03:30:06;15.50;99.90
4811;DHT22;2419;51.276;6.472;2022-07-23T03:32:34;15.40;99.90
4811;DHT22;2419;51.276;6.472;2022-07-23T03:35:02;15.30;99.90
4811;DHT22;2419;51.276;6.472;2022-07-23T03:37:35;15.20;99.90
4811;DHT22;2419;51.276;6.472;2022-07-23T03:40:05;15.30;99.90
4811;DHT22;2419;51.276;6.472;2022-07-23T03:42:33;15.20;99.90
4811;DHT22;2419;51.276;6.472;2022-07-23T03:45:03;15.20;99.90
4811;DHT22;2419;51.276;6.472;2022-07-23T03:47:31;15.20;99.90
4811;DHT22;2419;51.276;6.472;2022-07-23T03:49:59;15.20;99.90
4811;DHT22;2419;51.276;6.472;2022-07-23T03:52:28;15.30;99.90
4811;DHT22;2419;51.276;6.472;2022-07-23T03:54:57;15.20;99.90
4811;DHT22;2419;51.276;6.472;2022-07-23T03:57:25;15.20;99.90
4811;DHT22;2419;51.276;6.472;2022-07-23T03:59:53;15.20;99.90
4811;DHT22;2419;51.276;6.472;2022-07-23T04:02:22;15.10;99.90
4811;DHT22;2419;51.276;6.472;2022-07-23T04:04:50;15.10;99.90
4811;DHT22;2419;51.276;6.472;2022-07-23T04:07:18;15.10;99.90
4811;DHT22;2419;51.276;6.472;2022-07-23T04:09:46;15.10;99.90
4811;DHT22;2419;51.276;6.472;2022-07-23T04:12:16;15.00;99.90
4811;DHT22;2419;51.276;6.472;2022-07-23T04:14:44;15.00;99.90
4811;DHT22;2419;51.276;6.472;2022-07-23T04:17:13;14.90;99.90
4811;DHT22;2419;51.276;6.472;2022-07-23T04:19:42;15.00;99.90
4811;DHT22;2419;51.276;6.472;2022-07-23T04:22:12;15.10;99.90
4811;DHT22;2419;51.276;6.472;2022-07-23T04:24:41;15.10;99.90
4811;DHT22;2419;51.276;6.472;2022-07-23T04:27:09;15.20;99.90
4811;DHT22;2419;51.276;6.472;2022-07-23T04:29:40;15.20;99.90
4811;DHT22;2419;51.276;6.472;2022-07-23T04:32:08;15.30;99.90
4811;DHT22;2419;51.276;6.472;2022-07-23T04:34:37;15.30;99.90
4811;DHT22;2419;51.276;6.472;2022-07-23T04:37:05;15.40;99.90
4811;DHT22;2419;51.276;6.472;2022-07-23T04:39:35;15.40;99.90
4811;DHT22;2419;51.276;6.472;2022-07-23T04:42:03;15.30;99.90
4811;DHT22;2419;51.276;6.472;2022-07-23T04:44:31;15.40;99.90
4811;DHT22;2419;51.276;6.472;2022-07-23T04:47:02;15.50;99.90
4811;DHT22;2419;51.276;6.472;2022-07-23T04:49:32;15.50;99.90
4811;DHT22;2419;51.276;6.472;2022-07-23T04:52:00;15.70;99.90
4811;DHT22;2419;51.276;6.472;2022-07-23T04:54:29;15.80;99.90
4811;DHT22;2419;51.276;6.472;2022-07-23T04:56:57;16.00;99.90
4811;DHT22;2419;51.276;6.472;2022-07-23T04:59:25;16.10;99.90
4811;DHT22;2419;51.276;6.472;2022-07-23T05:01:58;16.00;99.90
4811;DHT22;2419;51.276;6.472;2022-07-23T05:04:28;16.10;99.90
4811;DHT22;2419;51.276;6.472;2022-07-23T05:06:56;16.20;99.90
4811;DHT22;2419;51.276;6.472;2022-07-23T05:09:24;16.30;99.90
4811;DHT22;2419;51.276;6.472;2022-07-23T05:11:53;16.40;99.90
4811;DHT22;2419;51.276;6.472;2022-07-23T05:14:22;16.50;99.90
4811;DHT22;2419;51.276;6.472;2022-07-23T05:16:50;16.80;99.90
4811;DHT22;2419;51.276;6.472;2022-07-23T05:19:22;17.60;99.90
4811;DHT22;2419;51.276;6.472;2022-07-23T05:21:53;18.30;99.90
4811;DHT22;2419;51.276;6.472;2022-07-23T05:24:21;18.70;99.90
4811;DHT22;2419;51.276;6.472;2022-07-23T05:26:50;19.10;99.90
4811;DHT22;2419;51.276;6.472;2022-07-23T05:29:19;19.30;99.90
4811;DHT22;2419;51.276;6.472;2022-07-23T05:31:47;19.70;99.90
4811;DHT22;2419;51.276;6.472;2022-07-23T05:34:15;20.00;99.90
4811;DHT22;2419;51.276;6.472;2022-07-23T05:36:45;20.40;99.90
4811;DHT22;2419;51.276;6.472;2022-07-23T05:39:17;20.30;99.90
4811;DHT22;2419;51.276;6.472;2022-07-23T05:41:45;20.20;99.90
4811;DHT22;2419;51.276;6.472;2022-07-23T05:44:13;19.10;99.90
4811;DHT22;2419;51.276;6.472;2022-07-23T05:46:43;18.80;99.90
4811;DHT22;2419;51.276;6.472;2022-07-23T05:49:16;18.50;99.90
4811;DHT22;2419;51.276;6.472;2022-07-23T05:52:04;18.20;99.90
4811;DHT22;2419;51.276;6.472;2022-07-23T05:54:51;17.70;99.90
4811;DHT22;2419;51.276;6.472;2022-07-23T05:57:19;17.60;99.90
4811;DHT22;2419;51.276;6.472;2022-07-23T05:59:51;17.60;99.90
4811;DHT22;2419;51.276;6.472;2022-07-23T06:02:19;17.50;99.90
4811;DHT22;2419;51.276;6.472;2022-07-23T06:04:48;17.50;99.90
4811;DHT22;2419;51.276;6.472;2022-07-23T06:07:27;17.60;99.90
4811;DHT22;2419;51.276;6.472;2022-07-23T06:09:56;17.60;99.90
4811;DHT22;2419;51.276;6.472;2022-07-23T06:12:24;17.60;99.90
4811;DHT22;2419;51.276;6.472;2022-07-23T06:14:53;17.80;99.90
4811;DHT22;2419;51.276;6.472;2022-07-23T06:17:21;17.80;99.90
4811;DHT22;2419;51.276;6.472;2022-07-23T06:19:51;17.80;99.90
4811;DHT22;2419;51.276;6.472;2022-07-23T06:22:20;18.00;99.90
4811;DHT22;2419;51.276;6.472;2022-07-23T06:24:49;18.10;99.90
4811;DHT22;2419;51.276;6.472;2022-07-23T06:27:21;18.10;99.90
4811;DHT22;2419;51.276;6.472;2022-07-23T06:29:52;18.10;99.90
4811;DHT22;2419;51.276;6.472;2022-07-23T06:32:21;18.20;99.90
4811;DHT22;2419;51.276;6.472;2022-07-23T06:34:49;18.20;99.90
4811;DHT22;2419;51.276;6.472;2022-07-23T06:37:20;18.20;99.90
4811;DHT22;2419;51.276;6.472;2022-07-23T06:39:49;18.30;99.90
4811;DHT22;2419;51.276;6.472;2022-07-23T06:42:17;18.10;99.90
4811;DHT22;2419;51.276;6.472;2022-07-23T06:44:50;18.30;99.90
4811;DHT22;2419;51.276;6.472;2022-07-23T06:47:18;18.20;99.90
4811;DHT22;2419;51.276;6.472;2022-07-23T06:49:47;18.30;99.90
4811;DHT22;2419;51.276;6.472;2022-07-23T06:52:16;18.40;99.90
4811;DHT22;2419;51.276;6.472;2022-07-23T06:54:44;18.50;99.90
4811;DHT22;2419;51.276;6.472;2022-07-23T06:57:12;18.60;99.90
4811;DHT22;2419;51.276;6.472;2022-07-23T06:59:41;18.50;99.90
4811;DHT22;2419;51.276;6.472;2022-07-23T07:02:10;18.60;99.90
4811;DHT22;2419;51.276;6.472;2022-07-23T07:04:38;18.80;99.90
4811;DHT22;2419;51.276;6.472;2022-07-23T07:07:06;18.90;99.90
4811;DHT22;2419;51.276;6.472;2022-07-23T07:09:35;19.00;99.90
4811;DHT22;2419;51.276;6.472;2022-07-23T07:12:03;18.90;99.90
4811;DHT22;2419;51.276;6.472;2022-07-23T07:14:32;19.00;99.90
4811;DHT22;2419;51.276;6.472;2022-07-23T07:17:00;19.10;99.90
4811;DHT22;2419;51.276;6.472;2022-07-23T07:19:29;19.10;99.90
4811;DHT22;2419;51.276;6.472;2022-07-23T07:21:57;19.20;99.90
4811;DHT22;2419;51.276;6.472;2022-07-23T07:24:25;19.30;99.90
4811;DHT22;2419;51.276;6.472;2022-07-23T07:27:00;19.40;99.90
4811;DHT22;2419;51.276;6.472;2022-07-23T07:29:28;19.60;99.90
4811;DHT22;2419;51.276;6.472;2022-07-23T07:31:56;19.90;99.90
4811;DHT22;2419;51.276;6.472;2022-07-23T07:34:24;19.90;99.90
4811;DHT22;2419;51.276;6.472;2022-07-23T07:36:54;19.90;99.90
4811;DHT22;2419;51.276;6.472;2022-07-23T07:39:22;19.90;99.90
4811;DHT22;2419;51.276;6.472;2022-07-23T07:41:50;19.90;99.90
4811;DHT22;2419;51.276;6.472;2022-07-23T07:44:18;19.80;99.90
4811;DHT22;2419;51.276;6.472;2022-07-23T07:46:46;19.90;99.90
4811;DHT22;2419;51.276;6.472;2022-07-23T07:49:14;19.80;99.90
4811;DHT22;2419;51.276;6.472;2022-07-23T07:51:48;20.00;99.90
4811;DHT22;2419;51.276;6.472;2022-07-23T07:54:19;20.00;99.90
4811;DHT22;2419;51.276;6.472;2022-07-23T07:56:47;20.00;99.90
4811;DHT22;2419;51.276;6.472;2022-07-23T07:59:15;20.00;99.90
4811;DHT22;2419;51.276;6.472;2022-07-23T08:01:43;20.20;99.90
4811;DHT22;2419;51.276;6.472;2022-07-23T08:04:11;20.30;99.90
4811;DHT22;2419;51.276;6.472;2022-07-23T08:06:39;20.40;99.90
4811;DHT22;2419;51.276;6.472;2022-07-23T08:09:08;20.50;99.90
4811;DHT22;2419;51.276;6.472;2022-07-23T08:11:37;20.70;99.90
4811;DHT22;2419;51.276;6.472;2022-07-23T08:14:05;20.80;99.90
4811;DHT22;2419;51.276;6.472;2022-07-23T08:16:33;20.70;99.90
4811;DHT22;2419;51.276;6.472;2022-07-23T08:19:21;20.60;99.90
4811;DHT22;2419;51.276;6.472;2022-07-23T08:21:50;20.60;99.90
4811;DHT22;2419;51.276;6.472;2022-07-23T08:24:18;20.60;99.90
4811;DHT22;2419;51.276;6.472;2022-07-23T08:26:47;20.60;99.90
4811;DHT22;2419;51.276;6.472;2022-07-23T08:29:15;20.50;99.90
4811;DHT22;2419;51.276;6.472;2022-07-23T08:31:43;20.50;99.90
4811;DHT22;2419;51.276;6.472;2022-07-23T08:34:12;20.70;99.90
4811;DHT22;2419;51.276;6.472;2022-07-23T08:36:40;20.70;99.90
4811;DHT22;2419;51.276;6.472;2022-07-23T08:39:08;20.60;99.90
4811;DHT22;2419;51.276;6.472;2022-07-23T08:41:39;20.60;99.90
4811;DHT22;2419;51.276;6.472;2022-07-23T08:44:10;20.70;99.90
4811;DHT22;2419;51.276;6.472;2022-07-23T08:46:39;20.70;99.90
4811;DHT22;2419;51.276;6.472;2022-07-23T08:49:10;20.90;99.90
4811;DHT22;2419;51.276;6.472;2022-07-23T08:51:39;20.90;99.90
4811;DHT22;2419;51.276;6.472;2022-07-23T08:54:08;20.90;99.90
4811;DHT22;2419;51.276;6.472;2022-07-23T08:56:36;21.00;99.90
4811;DHT22;2419;51.276;6.472;2022-07-23T08:59:04;21.20;99.90
4811;DHT22;2419;51.276;6.472;2022-07-23T09:01:33;21.20;99.90
4811;DHT22;2419;51.276;6.472;2022-07-23T09:04:02;21.30;99.90
4811;DHT22;2419;51.276;6.472;2022-07-23T09:06:30;21.40;99.90
4811;DHT22;2419;51.276;6.472;2022-07-23T09:09:16;21.70;99.90
4811;DHT22;2419;51.276;6.472;2022-07-23T09:11:46;21.60;99.90
4811;DHT22;2419;51.276;6.472;2022-07-23T09:14:14;21.90;99.90
4811;DHT22;2419;51.276;6.472;2022-07-23T09:16:44;22.60;99.90
4811;DHT22;2419;51.276;6.472;2022-07-23T09:19:12;23.50;99.90
4811;DHT22;2419;51.276;6.472;2022-07-23T09:21:40;23.90;99.90
4811;DHT22;2419;51.276;6.472;2022-07-23T09:24:11;24.80;99.60
4811;DHT22;2419;51.276;6.472;2022-07-23T09:26:43;25.50;95.90
4811;DHT22;2419;51.276;6.472;2022-07-23T09:29:13;25.90;92.30
4811;DHT22;2419;51.276;6.472;2022-07-23T09:31:49;26.10;92.30
4811;DHT22;2419;51.276;6.472;2022-07-23T09:34:20;26.40;91.50
4811;DHT22;2419;51.276;6.472;2022-07-23T09:36:51;26.90;90.00
4811;DHT22;2419;51.276;6.472;2022-07-23T09:39:26;27.10;89.80
4811;DHT22;2419;51.276;6.472;2022-07-23T09:41:54;27.30;88.10
4811;DHT22;2419;51.276;6.472;2022-07-23T09:44:23;27.80;86.90
4811;DHT22;2419;51.276;6.472;2022-07-23T09:46:59;27.80;83.90
4811;DHT22;2419;51.276;6.472;2022-07-23T09:49:40;27.30;84.40
4811;DHT22;2419;51.276;6.472;2022-07-23T09:52:12;27.90;83.40
4811;DHT22;2419;51.276;6.472;2022-07-23T09:54:40;28.00;80.10
4811;DHT22;2419;51.276;6.472;2022-07-23T09:57:09;28.50;79.20
4811;DHT22;2419;51.276;6.472;2022-07-23T09:59:43;28.60;77.40
4811;DHT22;2419;51.276;6.472;2022-07-23T10:02:14;28.30;79.20
4811;DHT22;2419;51.276;6.472;2022-07-23T10:05:02;28.00;80.20
4811;DHT22;2419;51.276;6.472;2022-07-23T10:07:51;28.40;79.30
4811;DHT22;2419;51.276;6.472;2022-07-23T10:10:39;28.50;77.70
4811;DHT22;2419;51.276;6.472;2022-07-23T10:13:24;28.40;77.10
4811;DHT22;2419;51.276;6.472;2022-07-23T10:16:11;28.80;75.70
4811;DHT22;2419;51.276;6.472;2022-07-23T10:18:44;29.30;77.10
4811;DHT22;2419;51.276;6.472;2022-07-23T10:21:18;28.30;75.10
4811;DHT22;2419;51.276;6.472;2022-07-23T10:23:58;28.40;77.30
4811;DHT22;2419;51.276;6.472;2022-07-23T10:26:35;28.90;76.10
4811;DHT22;2419;51.276;6.472;2022-07-23T10:29:16;29.20;72.70
4811;DHT22;2419;51.276;6.472;2022-07-23T10:31:51;28.30;76.60
4811;DHT22;2419;51.276;6.472;2022-07-23T10:34:40;28.70;78.60
4811;DHT22;2419;51.276;6.472;2022-07-23T10:37:14;29.20;77.70
4811;DHT22;2419;51.276;6.472;2022-07-23T10:39:48;29.20;74.10
4811;DHT22;2419;51.276;6.472;2022-07-23T10:42:17;29.40;74.70
4811;DHT22;2419;51.276;6.472;2022-07-23T10:44:46;29.30;74.60
4811;DHT22;2419;51.276;6.472;2022-07-23T10:47:24;28.90;73.50
4811;DHT22;2419;51.276;6.472;2022-07-23T10:50:25;29.00;74.10
4811;DHT22;2419;51.276;6.472;2022-07-23T10:53:14;29.30;73.40
4811;DHT22;2419;51.276;6.472;2022-07-23T10:55:47;29.70;73.10
4811;DHT22;2419;51.276;6.472;2022-07-23T10:58:21;30.30;70.70
4811;DHT22;2419;51.276;6.472;2022-07-23T11:00:49;30.00;72.50
4811;DHT22;2419;51.276;6.472;2022-07-23T11:03:42;30.20;68.50
4811;DHT22;2419;51.276;6.472;2022-07-23T11:09:39;29.60;69.10
4811;DHT22;2419;51.276;6.472;2022-07-23T11:12:32;28.90;72.80
4811;DHT22;2419;51.276;6.472;2022-07-23T11:15:04;29.20;74.10
4811;DHT22;2419;51.276;6.472;2022-07-23T11:17:34;29.60;70.60
4811;DHT22;2419;51.276;6.472;2022-07-23T11:20:22;29.60;72.20
4811;DHT22;2419;51.276;6.472;2022-07-23T11:22:55;29.30;69.30
4811;DHT22;2419;51.276;6.472;2022-07-23T11:25:33;30.10;69.70
4811;DHT22;2419;51.276;6.472;2022-07-23T11:28:13;30.10;70.10
4811;DHT22;2419;51.276;6.472;2022-07-23T11:30:43;29.70;69.80
4811;DHT22;2419;51.276;6.472;2022-07-23T11:33:21;30.30;69.60
4811;DHT22;2419;51.276;6.472;2022-07-23T11:36:00;30.40;68.70
4811;DHT22;2419;51.276;6.472;2022-07-23T11:38:32;30.70;69.60
4811;DHT22;2419;51.276;6.472;2022-07-23T11:41:00;30.90;67.90
4811;DHT22;2419;51.276;6.472;2022-07-23T11:43:28;31.50;67.10
4811;DHT22;2419;51.276;6.472;2022-07-23T11:46:02;31.20;66.50
4811;DHT22;2419;51.276;6.472;2022-07-23T11:48:37;31.30;66.70
4811;DHT22;2419;51.276;6.472;2022-07-23T11:51:07;30.70;67.60
4811;DHT22;2419;51.276;6.472;2022-07-23T11:53:36;30.60;67.10
4811;DHT22;2419;51.276;6.472;2022-07-23T11:56:06;30.10;67.70
4811;DHT22;2419;51.276;6.472;2022-07-23T11:58:34;30.60;67.60
4811;DHT22;2419;51.276;6.472;2022-07-23T12:01:03;30.50;67.00
4811;DHT22;2419;51.276;6.472;2022-07-23T12:03:31;30.50;64.40
4811;DHT22;2419;51.276;6.472;2022-07-23T12:06:00;30.40;66.20
4811;DHT22;2419;51.276;6.472;2022-07-23T12:08:29;31.00;65.20
4811;DHT22;2419;51.276;6.472;2022-07-23T12:10:58;30.40;65.00
4811;DHT22;2419;51.276;6.472;2022-07-23T12:13:26;29.70;65.70
4811;DHT22;2419;51.276;6.472;2022-07-23T12:15:56;29.70;65.00
4811;DHT22;2419;51.276;6.472;2022-07-23T12:18:26;30.20;64.50
4811;DHT22;2419;51.276;6.472;2022-07-23T12:20:56;28.80;66.50
4811;DHT22;2419;51.276;6.472;2022-07-23T12:23:26;29.40;68.10
4811;DHT22;2419;51.276;6.472;2022-07-23T12:25:54;30.30;67.60
4811;DHT22;2419;51.276;6.472;2022-07-23T12:28:28;30.20;66.80
4811;DHT22;2419;51.276;6.472;2022-07-23T12:30:57;30.20;65.00
4811;DHT22;2419;51.276;6.472;2022-07-23T12:33:26;30.30;66.10
4811;DHT22;2419;51.276;6.472;2022-07-23T12:35:57;30.30;66.90
4811;DHT22;2419;51.276;6.472;2022-07-23T12:38:27;29.50;67.30
4811;DHT22;2419;51.276;6.472;2022-07-23T12:40:57;30.10;67.30
4811;DHT22;2419;51.276;6.472;2022-07-23T12:43:29;30.40;67.20
4811;DHT22;2419;51.276;6.472;2022-07-23T12:46:03;29.50;65.90
4811;DHT22;2419;51.276;6.472;2022-07-23T12:48:33;29.40;66.90
4811;DHT22;2419;51.276;6.472;2022-07-23T12:51:06;28.70;67.40
4811;DHT22;2419;51.276;6.472;2022-07-23T12:53:38;27.90;67.30
4811;DHT22;2419;51.276;6.472;2022-07-23T12:56:09;28.30;69.60
4811;DHT22;2419;51.276;6.472;2022-07-23T12:59:05;28.90;69.10
4811;DHT22;2419;51.276;6.472;2022-07-23T13:01:36;29.10;68.80
4811;DHT22;2419;51.276;6.472;2022-07-23T13:04:05;29.60;66.90
4811;DHT22;2419;51.276;6.472;2022-07-23T13:06:41;29.50;67.50
4811;DHT22;2419;51.276;6.472;2022-07-23T13:09:12;28.70;68.00
4811;DHT22;2419;51.276;6.472;2022-07-23T13:11:42;27.80;69.40
4811;DHT22;2419;51.276;6.472;2022-07-23T13:14:18;27.80;71.10
4811;DHT22;2419;51.276;6.472;2022-07-23T13:16:52;27.30;71.10
4811;DHT22;2419;51.276;6.472;2022-07-23T13:19:27;27.60;70.00
4811;DHT22;2419;51.276;6.472;2022-07-23T13:21:56;27.10;70.60
4811;DHT22;2419;51.276;6.472;2022-07-23T13:24:24;26.60;71.90
4811;DHT22;2419;51.276;6.472;2022-07-23T13:26:53;27.10;73.60
4811;DHT22;2419;51.276;6.472;2022-07-23T13:29:26;27.40;71.40
4811;DHT22;2419;51.276;6.472;2022-07-23T13:31:58;27.80;74.00
4811;DHT22;2419;51.276;6.472;2022-07-23T13:34:26;27.90;71.90
4811;DHT22;2419;51.276;6.472;2022-07-23T13:36:55;27.10;70.90
4811;DHT22;2419;51.276;6.472;2022-07-23T13:39:23;27.10;72.00
4811;DHT22;2419;51.276;6.472;2022-07-23T13:42:38;26.60;73.20
4811;DHT22;2419;51.276;6.472;2022-07-23T13:45:08;27.30;74.20
4811;DHT22;2419;51.276;6.472;2022-07-23T13:47:38;26.70;70.70
4811;DHT22;2419;51.276;6.472;2022-07-23T13:50:10;26.30;71.20
4811;DHT22;2419;51.276;6.472;2022-07-23T13:52:40;26.60;72.90
4811;DHT22;2419;51.276;6.472;2022-07-23T13:55:09;27.00;73.00
4811;DHT22;2419;51.276;6.472;2022-07-23T13:57:38;27.30;71.50
4811;DHT22;2419;51.276;6.472;2022-07-23T14:00:09;27.30;70.70
4811;DHT22;2419;51.276;6.472;2022-07-23T14:02:59;27.30;71.20
4811;DHT22;2419;51.276;6.472;2022-07-23T14:05:27;27.20;71.00
4811;DHT22;2419;51.276;6.472;2022-07-23T14:07:56;27.30;71.50
4811;DHT22;2419;51.276;6.472;2022-07-23T14:10:24;27.20;70.60
4811;DHT22;2419;51.276;6.472;2022-07-23T14:12:53;27.20;70.50
4811;DHT22;2419;51.276;6.472;2022-07-23T14:15:25;27.20;70.70
4811;DHT22;2419;51.276;6.472;2022-07-23T14:17:56;27.40;70.20
4811;DHT22;2419;51.276;6.472;2022-07-23T14:20:25;27.70;69.70
4811;DHT22;2419;51.276;6.472;2022-07-23T14:22:53;27.70;71.30
4811;DHT22;2419;51.276;6.472;2022-07-23T14:25:24;27.40;70.60
4811;DHT22;2419;51.276;6.472;2022-07-23T14:27:53;27.40;71.70
4811;DHT22;2419;51.276;6.472;2022-07-23T14:30:22;27.00;71.50
4811;DHT22;2419;51.276;6.472;2022-07-23T14:32:57;26.50;71.60
4811;DHT22;2419;51.276;6.472;2022-07-23T14:35:27;26.40;70.90
4811;DHT22;2419;51.276;6.472;2022-07-23T14:37:55;26.60;70.10
4811;DHT22;2419;51.276;6.472;2022-07-23T14:40:24;26.60;71.70
4811;DHT22;2419;51.276;6.472;2022-07-23T14:42:55;26.70;71.70
4811;DHT22;2419;51.276;6.472;2022-07-23T14:45:23;26.80;71.00
4811;DHT22;2419;51.276;6.472;2022-07-23T14:47:51;26.80;69.50
4811;DHT22;2419;51.276;6.472;2022-07-23T14:50:21;27.00;72.70
4811;DHT22;2419;51.276;6.472;2022-07-23T14:52:49;27.10;71.40
4811;DHT22;2419;51.276;6.472;2022-07-23T14:55:18;27.10;69.80
4811;DHT22;2419;51.276;6.472;2022-07-23T14:57:47;27.10;70.10
4811;DHT22;2419;51.276;6.472;2022-07-23T15:00:16;27.20;72.40
4811;DHT22;2419;51.276;6.472;2022-07-23T15:02:49;27.30;71.90
4811;DHT22;2419;51.276;6.472;2022-07-23T15:05:22;27.30;72.30
4811;DHT22;2419;51.276;6.472;2022-07-23T15:07:51;27.50;71.10
4811;DHT22;2419;51.276;6.472;2022-07-23T15:10:19;27.60;70.90
4811;DHT22;2419;51.276;6.472;2022-07-23T15:12:48;27.60;70.80
4811;DHT22;2419;51.276;6.472;2022-07-23T15:15:17;27.50;70.90
4811;DHT22;2419;51.276;6.472;2022-07-23T15:17:47;27.50;69.30
4811;DHT22;2419;51.276;6.472;2022-07-23T15:20:16;27.50;70.10
4811;DHT22;2419;51.276;6.472;2022-07-23T15:23:05;27.00;69.30
4811;DHT22;2419;51.276;6.472;2022-07-23T15:25:34;27.20;70.30
4811;DHT22;2419;51.276;6.472;2022-07-23T15:28:04;27.20;69.60
4811;DHT22;2419;51.276;6.472;2022-07-23T15:30:35;27.20;69.40
4811;DHT22;2419;51.276;6.472;2022-07-23T15:33:04;27.50;70.90
4811;DHT22;2419;51.276;6.472;2022-07-23T15:35:36;27.50;71.50
4811;DHT22;2419;51.276;6.472;2022-07-23T15:38:06;27.20;69.80
4811;DHT22;2419;51.276;6.472;2022-07-23T15:40:39;27.40;70.90
4811;DHT22;2419;51.276;6.472;2022-07-23T15:43:07;27.50;71.20
4811;DHT22;2419;51.276;6.472;2022-07-23T15:45:38;27.40;71.10
4811;DHT22;2419;51.276;6.472;2022-07-23T15:48:07;27.40;71.10
4811;DHT22;2419;51.276;6.472;2022-07-23T15:50:35;27.30;69.50
4811;DHT22;2419;51.276;6.472;2022-07-23T15:53:11;26.80;70.10
4811;DHT22;2419;51.276;6.472;2022-07-23T15:55:41;26.90;69.10
4811;DHT22;2419;51.276;6.472;2022-07-23T15:58:12;26.70;69.80
4811;DHT22;2419;51.276;6.472;2022-07-23T16:00:41;26.80;69.90
4811;DHT22;2419;51.276;6.472;2022-07-23T16:03:13;26.60;70.50
4811;DHT22;2419;51.276;6.472;2022-07-23T16:05:41;26.80;71.50
4811;DHT22;2419;51.276;6.472;2022-07-23T16:08:11;26.80;71.40
4811;DHT22;2419;51.276;6.472;2022-07-23T16:10:39;26.80;70.90
4811;DHT22;2419;51.276;6.472;2022-07-23T16:13:07;26.70;71.00
4811;DHT22;2419;51.276;6.472;2022-07-23T16:15:36;27.00;73.40
4811;DHT22;2419;51.276;6.472;2022-07-23T16:18:04;26.90;73.60
4811;DHT22;2419;51.276;6.472;2022-07-23T16:20:34;26.90;72.00
4811;DHT22;2419;51.276;6.472;2022-07-23T16:23:02;26.80;73.00
4811;DHT22;2419;51.276;6.472;2022-07-23T16:25:32;26.50;72.70
4811;DHT22;2419;51.276;6.472;2022-07-23T16:28:00;26.60;74.10